createdAt,value
2022-12-01T00:01:26.019Z,2.06
2022-12-01T00:06:47.814Z,1.87
2022-12-01T00:12:09.770Z,1.85
2022-12-01T00:17:31.590Z,1.83
2022-12-01T00:22:53.897Z,1.82
2022-12-01T00:28:15.695Z,1.72
2022-12-01T00:33:38.033Z,1.79
2022-12-01T00:38:59.838Z,1.80
2022-12-01T00:44:21.622Z,1.70
2022-12-01T00:49:44.066Z,1.85
2022-12-01T00:55:06.342Z,1.74
2022-12-01T01:00:28.264Z,1.83
2022-12-01T01:05:50.173Z,1.82
2022-12-01T01:11:12.104Z,1.80
2022-12-01T01:16:34.596Z,1.76
2022-12-01T01:21:56.395Z,1.70
2022-12-01T01:27:18.223Z,1.61
2022-12-01T01:32:40.102Z,1.55
2022-12-01T01:38:01.892Z,1.74
2022-12-01T01:43:41.908Z,1.69
2022-12-01T01:49:09.683Z,1.54
2022-12-01T01:54:36.168Z,1.55
2022-12-01T02:00:00.966Z,1.41
2022-12-01T02:05:26.631Z,1.65
2022-12-01T02:11:19.451Z,1.69
2022-12-01T02:17:00.421Z,1.50
2022-12-01T02:22:35.665Z,1.57
2022-12-01T02:28:06.374Z,1.61
2022-12-01T02:33:53.960Z,1.68
2022-12-01T02:39:33.927Z,1.81
2022-12-01T02:44:57.450Z,1.81
2022-12-01T02:50:22.055Z,1.72
2022-12-01T02:55:48.558Z,1.46
2022-12-01T03:01:43.889Z,1.40
2022-12-01T03:07:14.654Z,1.50
2022-12-01T03:12:51.598Z,1.75
2022-12-01T03:18:43.699Z,1.37
2022-12-01T03:24:17.258Z,1.39
2022-12-01T03:29:43.647Z,1.22
2022-12-01T03:35:13.579Z,1.46
2022-12-01T03:40:39.047Z,1.37
2022-12-01T03:46:13.438Z,1.55
2022-12-01T03:51:56.185Z,1.56
2022-12-01T03:57:25.259Z,1.66
2022-12-01T04:02:47.171Z,1.53
2022-12-01T04:08:09.114Z,1.26
2022-12-01T04:13:30.921Z,1.46
2022-12-01T04:18:52.714Z,1.63
2022-12-01T04:24:15.531Z,1.62
2022-12-01T04:29:37.342Z,1.65
2022-12-01T04:34:59.115Z,1.47
2022-12-01T04:40:20.874Z,1.41
2022-12-01T04:45:42.678Z,1.46
2022-12-01T04:51:06.520Z,1.54
2022-12-01T04:56:28.618Z,1.53
2022-12-01T05:01:50.526Z,1.62
2022-12-01T05:07:12.374Z,1.65
2022-12-01T05:12:34.134Z,1.62
2022-12-01T05:17:55.909Z,1.58
2022-12-01T05:23:17.678Z,1.45
2022-12-01T05:28:40.075Z,1.74
2022-12-01T05:34:01.909Z,1.59
2022-12-01T05:39:23.686Z,1.43
2022-12-01T05:44:45.478Z,1.61
2022-12-01T05:50:08.265Z,1.58
2022-12-01T05:55:30.100Z,1.57
2022-12-01T06:00:51.882Z,1.54
2022-12-01T06:06:13.864Z,1.62
2022-12-01T06:11:35.861Z,1.70
2022-12-01T06:16:57.680Z,1.67
2022-12-01T06:22:19.483Z,1.62
2022-12-01T06:27:41.276Z,1.62
2022-12-01T06:33:03.109Z,1.68
2022-12-01T06:38:24.970Z,1.49
2022-12-01T06:43:46.753Z,1.58
2022-12-01T06:49:12.637Z,1.51
2022-12-01T06:54:34.417Z,1.73
2022-12-01T06:59:56.386Z,1.63
2022-12-01T07:05:18.555Z,1.68
2022-12-01T07:10:40.335Z,1.64
2022-12-01T07:16:03.228Z,1.80
2022-12-01T07:21:25.311Z,1.83
2022-12-01T07:26:47.117Z,1.70
2022-12-01T07:32:08.873Z,1.76
2022-12-01T07:37:30.682Z,1.68
2022-12-01T07:42:52.469Z,1.63
2022-12-01T07:48:14.287Z,1.64
2022-12-01T07:53:36.651Z,1.73
2022-12-01T07:58:58.897Z,1.69
2022-12-01T08:04:20.678Z,1.78
2022-12-01T08:09:42.530Z,1.68
2022-12-01T08:15:04.656Z,1.72
2022-12-01T08:20:26.457Z,1.91
2022-12-01T08:25:48.217Z,1.81
2022-12-01T08:31:13.019Z,1.83
2022-12-01T08:36:35.783Z,1.90
2022-12-01T08:41:57.589Z,1.89
2022-12-01T08:47:19.430Z,1.84
2022-12-01T08:52:41.320Z,1.84
2022-12-01T08:58:03.148Z,1.83
2022-12-01T09:03:25.141Z,1.83
2022-12-01T09:08:47.599Z,1.79
2022-12-01T09:14:10.433Z,1.68
2022-12-01T09:19:32.404Z,1.74
2022-12-01T09:24:54.191Z,1.80
2022-12-01T09:30:16.519Z,1.68
2022-12-01T09:35:38.404Z,1.50
2022-12-01T09:41:04.430Z,1.54
2022-12-01T09:46:32.094Z,1.33
2022-12-01T09:51:55.015Z,1.56
2022-12-01T09:57:23.353Z,1.74
2022-12-01T10:02:57.159Z,1.81
2022-12-01T10:08:26.923Z,1.81
2022-12-01T10:13:49.123Z,1.73
2022-12-01T10:19:25.989Z,1.77
2022-12-01T10:25:01.605Z,1.68
2022-12-01T10:30:24.953Z,1.86
2022-12-01T10:35:46.806Z,1.90
2022-12-01T10:41:14.478Z,1.70
2022-12-01T10:46:53.873Z,1.80
2022-12-01T10:52:38.249Z,1.71
2022-12-01T10:58:09.108Z,1.89
2022-12-01T11:03:34.893Z,1.87
2022-12-01T11:09:01.038Z,1.55
2022-12-01T11:14:30.492Z,1.68
2022-12-01T11:19:52.832Z,1.76
2022-12-01T11:25:21.996Z,1.72
2022-12-01T11:30:43.910Z,1.64
2022-12-01T11:36:11.737Z,1.58
2022-12-01T11:41:39.653Z,1.63
2022-12-01T11:47:23.170Z,1.70
2022-12-01T11:52:47.181Z,1.82
2022-12-01T11:58:09.230Z,1.87
2022-12-01T12:03:46.390Z,1.77
2022-12-01T12:09:27.162Z,1.50
2022-12-01T12:15:19.902Z,1.19
2022-12-01T12:20:56.060Z,1.20
2022-12-01T12:26:25.331Z,1.32
2022-12-01T12:31:56.207Z,1.58
2022-12-01T12:37:23.050Z,1.44
2022-12-01T12:43:02.706Z,1.01
2022-12-01T12:48:57.346Z,1.11
2022-12-01T12:54:36.675Z,0.96
2022-12-01T13:00:15.372Z,1.13
2022-12-01T13:05:55.609Z,0.94
2022-12-01T13:11:23.914Z,1.12
2022-12-01T13:16:49.306Z,0.87
2022-12-01T13:22:13.327Z,0.86
2022-12-01T13:27:40.892Z,1.09
2022-12-01T13:33:05.092Z,1.20
2022-12-01T13:38:34.213Z,1.01
2022-12-01T13:43:55.955Z,0.92
2022-12-01T13:49:43.532Z,0.84
2022-12-01T13:55:08.313Z,0.95
2022-12-01T14:00:32.897Z,0.85
2022-12-01T14:06:05.484Z,0.72
2022-12-01T14:11:29.743Z,0.82
2022-12-01T14:16:54.422Z,0.67
2022-12-01T14:22:39.465Z,0.32
2022-12-01T14:28:03.330Z,0.64
2022-12-01T14:38:47.242Z,0.23
2022-12-01T14:44:30.620Z,0.21
2022-12-01T14:50:03.123Z,0.21
2022-12-01T14:55:40.386Z,0.47
2022-12-01T15:01:11.761Z,0.15
2022-12-01T15:06:35.554Z,0.24
2022-12-01T15:12:03.073Z,0.30
2022-12-01T15:17:32.938Z,-0.19
2022-12-01T15:22:55.838Z,0.03
2022-12-01T15:28:29.009Z,-0.14
2022-12-01T15:33:53.371Z,-0.08
2022-12-01T15:39:36.463Z,-0.11
2022-12-01T15:45:00.995Z,-0.12
2022-12-01T15:50:46.007Z,-0.09
2022-12-01T15:56:10.322Z,-0.13
2022-12-01T16:01:32.512Z,-0.19
2022-12-01T16:07:03.214Z,-0.36
2022-12-01T16:12:27.711Z,-0.42
2022-12-01T16:17:51.435Z,-0.33
2022-12-01T16:23:23.649Z,-0.50
2022-12-01T16:28:45.749Z,-0.42
2022-12-01T16:34:44.089Z,-0.40
2022-12-01T16:39:57.948Z,-0.51
2022-12-01T16:45:20.426Z,-0.45
2022-12-01T16:50:42.229Z,-0.63
2022-12-01T16:56:04.178Z,-0.82
2022-12-01T17:01:26.001Z,-0.58
2022-12-01T17:06:47.930Z,-0.60
2022-12-01T17:12:09.697Z,-0.61
2022-12-01T17:17:31.485Z,-0.83
2022-12-01T17:22:53.322Z,-0.67
2022-12-01T17:28:15.180Z,-0.77
2022-12-01T17:33:37.000Z,-0.78
2022-12-01T17:38:58.909Z,-0.71
2022-12-01T17:44:21.083Z,-0.90
2022-12-01T17:49:42.854Z,-1.02
2022-12-01T17:55:04.974Z,-0.89
2022-12-01T18:00:26.800Z,-0.83
2022-12-01T18:05:56.279Z,-0.87
2022-12-01T18:11:18.084Z,-1.12
2022-12-01T18:16:39.878Z,-1.15
2022-12-01T18:22:01.644Z,-0.97
2022-12-01T18:27:23.523Z,-1.12
2022-12-01T18:32:45.341Z,-1.05
2022-12-01T18:38:07.145Z,-1.00
2022-12-01T18:43:31.169Z,-1.33
2022-12-01T18:48:55.731Z,-1.14
2022-12-01T18:54:17.542Z,-1.33
2022-12-01T18:59:39.307Z,-1.03
2022-12-01T19:05:01.097Z,-1.40
2022-12-01T19:10:23.441Z,-1.00
2022-12-01T19:15:45.266Z,-0.99
2022-12-01T19:21:09.430Z,-1.24
2022-12-01T19:26:31.255Z,-1.10
2022-12-01T19:31:53.169Z,-1.22
2022-12-01T19:37:15.042Z,-1.28
2022-12-01T19:42:36.803Z,-1.35
2022-12-01T19:47:58.603Z,-1.32
2022-12-01T19:53:20.370Z,-1.32
2022-12-01T19:58:42.217Z,-1.08
2022-12-01T20:04:05.358Z,-1.17
2022-12-01T20:09:27.132Z,-1.23
2022-12-01T20:14:49.380Z,-1.39
2022-12-01T20:20:12.064Z,-1.24
2022-12-01T20:25:34.200Z,-1.20
2022-12-01T20:30:56.243Z,-1.39
2022-12-01T20:36:18.421Z,-1.67
2022-12-01T20:41:40.554Z,-1.32
2022-12-01T20:47:02.420Z,-1.45
2022-12-01T20:52:24.215Z,-1.42
2022-12-01T20:57:46.343Z,-1.35
2022-12-01T21:03:08.222Z,-1.45
2022-12-01T21:08:30.088Z,-1.33
2022-12-01T21:13:51.874Z,-1.44
2022-12-01T21:19:21.074Z,-1.48
2022-12-01T21:24:44.218Z,-1.29
2022-12-01T21:30:15.773Z,-1.25
2022-12-01T21:35:37.527Z,-1.32
2022-12-01T21:40:59.412Z,-1.24
2022-12-01T21:46:21.418Z,-1.24
2022-12-01T21:51:43.730Z,-1.36
2022-12-01T21:57:24.627Z,-1.31
2022-12-01T22:02:51.911Z,-1.37
2022-12-01T22:08:13.742Z,-1.44
2022-12-01T22:13:44.753Z,-1.48
2022-12-01T22:19:15.378Z,-1.46
2022-12-01T22:24:46.673Z,-1.39
2022-12-01T22:30:08.424Z,-1.30
2022-12-01T22:35:38.909Z,-1.33
2022-12-01T22:41:09.197Z,-1.34
2022-12-01T22:46:38.017Z,-1.24
2022-12-01T22:52:14.115Z,-1.32
2022-12-01T22:57:35.964Z,-1.38
2022-12-01T23:02:58.935Z,-1.41
2022-12-01T23:08:22.619Z,-1.51
2022-12-01T23:13:44.452Z,-1.48
2022-12-01T23:19:06.237Z,-1.50
2022-12-01T23:24:32.406Z,-1.63
2022-12-01T23:29:55.655Z,-1.74
2022-12-01T23:35:18.507Z,-1.77
2022-12-01T23:40:40.319Z,-1.78
2022-12-01T23:46:11.783Z,-1.81
2022-12-01T23:51:47.297Z,-1.96
2022-12-01T23:57:20.498Z,-1.94
